sensor_id;sensor_type;location;lat;lon;timestamp;P1;durP1;ratioP1;P2;durP2;ratioP2
19965;SDS011;10144;50.874;4.762;2023-12-20T00:01:22;12.30;;;2.53;;
19965;SDS011;10144;50.874;4.762;2023-12-20T00:03:50;20.47;;;3.40;;
19965;SDS011;10144;50.874;4.762;2023-12-20T00:06:17;14.23;;;2.50;;
19965;SDS011;10144;50.874;4.762;2023-12-20T00:16:11;17.17;;;2.40;;
19965;SDS011;10144;50.874;4.762;2023-12-20T00:21:09;13.57;;;2.40;;
19965;SDS011;10144;50.874;4.762;2023-12-20T00:26:57;24.70;;;3.43;;
19965;SDS011;10144;50.874;4.762;2023-12-20T00:32:45;20.70;;;2.77;;
19965;SDS011;10144;50.874;4.762;2023-12-20T00:38:36;18.43;;;2.60;;
19965;SDS011;10144;50.874;4.762;2023-12-20T00:44:23;13.63;;;2.30;;
19965;SDS011;10144;50.874;4.762;2023-12-20T00:50:25;19.30;;;2.43;;
19965;SDS011;10144;50.874;4.762;2023-12-20T00:52:53;15.37;;;2.20;;
19965;SDS011;10144;50.874;4.762;2023-12-20T01:00:24;12.90;;;2.33;;
19965;SDS011;10144;50.874;4.762;2023-12-20T01:03:08;11.40;;;2.50;;
19965;SDS011;10144;50.874;4.762;2023-12-20T01:08:20;14.30;;;2.37;;
19965;SDS011;10144;50.874;4.762;2023-12-20T01:10:55;14.40;;;2.00;;
19965;SDS011;10144;50.874;4.762;2023-12-20T01:21:50;15.23;;;2.50;;
19965;SDS011;10144;50.874;4.762;2023-12-20T01:24:17;12.63;;;2.20;;
19965;SDS011;10144;50.874;4.762;2023-12-20T01:26:44;18.40;;;2.60;;
19965;SDS011;10144;50.874;4.762;2023-12-20T01:29:09;14.43;;;2.60;;
19965;SDS011;10144;50.874;4.762;2023-12-20T01:31:54;25.53;;;2.70;;
19965;SDS011;10144;50.874;4.762;2023-12-20T01:36:59;16.73;;;3.27;;
19965;SDS011;10144;50.874;4.762;2023-12-20T01:47:50;18.37;;;2.53;;
19965;SDS011;10144;50.874;4.762;2023-12-20T01:53:17;31.70;;;3.00;;
19965;SDS011;10144;50.874;4.762;2023-12-20T02:03:41;31.50;;;3.40;;
19965;SDS011;10144;50.874;4.762;2023-12-20T02:06:11;21.17;;;2.83;;
19965;SDS011;10144;50.874;4.762;2023-12-20T02:08:40;22.27;;;2.80;;
19965;SDS011;10144;50.874;4.762;2023-12-20T02:13:53;21.57;;;2.97;;
19965;SDS011;10144;50.874;4.762;2023-12-20T02:18:55;20.53;;;3.27;;
19965;SDS011;10144;50.874;4.762;2023-12-20T02:21:33;19.13;;;3.30;;
19965;SDS011;10144;50.874;4.762;2023-12-20T02:24:10;21.47;;;3.40;;
19965;SDS011;10144;50.874;4.762;2023-12-20T02:29:49;19.70;;;2.87;;
19965;SDS011;10144;50.874;4.762;2023-12-20T02:34:47;24.03;;;3.27;;
19965;SDS011;10144;50.874;4.762;2023-12-20T02:56:51;19.67;;;3.60;;
19965;SDS011;10144;50.874;4.762;2023-12-20T02:59:17;21.27;;;3.20;;
19965;SDS011;10144;50.874;4.762;2023-12-20T03:01:46;14.03;;;3.20;;
19965;SDS011;10144;50.874;4.762;2023-12-20T03:04:16;22.50;;;3.60;;
19965;SDS011;10144;50.874;4.762;2023-12-20T03:06:45;16.67;;;3.57;;
19965;SDS011;10144;50.874;4.762;2023-12-20T03:11:43;17.83;;;3.00;;
19965;SDS011;10144;50.874;4.762;2023-12-20T03:14:23;25.13;;;4.13;;
19965;SDS011;10144;50.874;4.762;2023-12-20T03:23:31;26.87;;;3.30;;
19965;SDS011;10144;50.874;4.762;2023-12-20T03:26:11;17.37;;;2.90;;
19965;SDS011;10144;50.874;4.762;2023-12-20T03:28:53;25.07;;;3.63;;
19965;SDS011;10144;50.874;4.762;2023-12-20T03:33:58;15.97;;;3.40;;
19965;SDS011;10144;50.874;4.762;2023-12-20T03:36:27;18.60;;;3.20;;
19965;SDS011;10144;50.874;4.762;2023-12-20T03:42:15;28.93;;;4.27;;
19965;SDS011;10144;50.874;4.762;2023-12-20T03:50:08;26.40;;;3.43;;
19965;SDS011;10144;50.874;4.762;2023-12-20T03:52:35;24.73;;;4.43;;
19965;SDS011;10144;50.874;4.762;2023-12-20T03:57:33;22.33;;;3.60;;
19965;SDS011;10144;50.874;4.762;2023-12-20T03:59:58;22.40;;;3.87;;
19965;SDS011;10144;50.874;4.762;2023-12-20T04:05:42;27.10;;;4.00;;
19965;SDS011;10144;50.874;4.762;2023-12-20T04:08:11;26.87;;;4.33;;
19965;SDS011;10144;50.874;4.762;2023-12-20T04:10:44;19.23;;;4.00;;
19965;SDS011;10144;50.874;4.762;2023-12-20T04:13:12;25.20;;;4.47;;
19965;SDS011;10144;50.874;4.762;2023-12-20T04:15:39;26.20;;;4.77;;
19965;SDS011;10144;50.874;4.762;2023-12-20T04:18:08;22.87;;;4.17;;
19965;SDS011;10144;50.874;4.762;2023-12-20T04:20:40;25.40;;;4.10;;
19965;SDS011;10144;50.874;4.762;2023-12-20T04:23:07;24.33;;;4.57;;
19965;SDS011;10144;50.874;4.762;2023-12-20T04:25:40;24.47;;;4.13;;
19965;SDS011;10144;50.874;4.762;2023-12-20T04:30:58;19.27;;;4.17;;
19965;SDS011;10144;50.874;4.762;2023-12-20T04:33:27;23.40;;;3.87;;
19965;SDS011;10144;50.874;4.762;2023-12-20T04:44:47;18.53;;;4.00;;
19965;SDS011;10144;50.874;4.762;2023-12-20T04:47:12;22.73;;;4.03;;
19965;SDS011;10144;50.874;4.762;2023-12-20T04:49:41;27.50;;;3.77;;
19965;SDS011;10144;50.874;4.762;2023-12-20T04:52:16;24.17;;;4.00;;
19965;SDS011;10144;50.874;4.762;2023-12-20T04:57:11;26.37;;;4.60;;
19965;SDS011;10144;50.874;4.762;2023-12-20T05:04:38;18.23;;;3.93;;
19965;SDS011;10144;50.874;4.762;2023-12-20T05:07:07;28.00;;;4.27;;
19965;SDS011;10144;50.874;4.762;2023-12-20T05:09:51;29.23;;;4.03;;
19965;SDS011;10144;50.874;4.762;2023-12-20T05:12:25;27.57;;;4.00;;
19965;SDS011;10144;50.874;4.762;2023-12-20T05:29:00;19.83;;;3.80;;
19965;SDS011;10144;50.874;4.762;2023-12-20T05:31:28;27.57;;;4.70;;
19965;SDS011;10144;50.874;4.762;2023-12-20T05:33:57;32.00;;;4.40;;
19965;SDS011;10144;50.874;4.762;2023-12-20T05:36:26;21.77;;;3.90;;
19965;SDS011;10144;50.874;4.762;2023-12-20T05:38:55;19.37;;;4.13;;
19965;SDS011;10144;50.874;4.762;2023-12-20T05:41:21;23.83;;;3.50;;
19965;SDS011;10144;50.874;4.762;2023-12-20T05:43:51;23.17;;;3.60;;
19965;SDS011;10144;50.874;4.762;2023-12-20T05:46:16;25.97;;;3.70;;
19965;SDS011;10144;50.874;4.762;2023-12-20T05:48:43;19.90;;;4.20;;
19965;SDS011;10144;50.874;4.762;2023-12-20T05:53:38;19.33;;;3.80;;
19965;SDS011;10144;50.874;4.762;2023-12-20T05:59:18;20.13;;;3.50;;
19965;SDS011;10144;50.874;4.762;2023-12-20T06:01:47;24.57;;;4.23;;
19965;SDS011;10144;50.874;4.762;2023-12-20T06:04:22;25.57;;;3.90;;
19965;SDS011;10144;50.874;4.762;2023-12-20T06:06:49;22.33;;;3.70;;
19965;SDS011;10144;50.874;4.762;2023-12-20T06:09:31;19.30;;;4.97;;
19965;SDS011;10144;50.874;4.762;2023-12-20T06:12:11;25.60;;;4.50;;
19965;SDS011;10144;50.874;4.762;2023-12-20T06:17:09;28.87;;;4.47;;
19965;SDS011;10144;50.874;4.762;2023-12-20T06:19:35;25.70;;;4.33;;
19965;SDS011;10144;50.874;4.762;2023-12-20T06:22:03;32.27;;;4.80;;
19965;SDS011;10144;50.874;4.762;2023-12-20T06:24:29;23.17;;;5.57;;
19965;SDS011;10144;50.874;4.762;2023-12-20T06:26:58;34.63;;;4.67;;
19965;SDS011;10144;50.874;4.762;2023-12-20T06:31:56;21.63;;;4.47;;
19965;SDS011;10144;50.874;4.762;2023-12-20T06:36:54;18.17;;;3.90;;
19965;SDS011;10144;50.874;4.762;2023-12-20T06:41:51;27.60;;;4.00;;
19965;SDS011;10144;50.874;4.762;2023-12-20T06:44:23;21.00;;;3.57;;
19965;SDS011;10144;50.874;4.762;2023-12-20T06:46:51;20.27;;;3.30;;
19965;SDS011;10144;50.874;4.762;2023-12-20T06:51:47;23.07;;;3.77;;
19965;SDS011;10144;50.874;4.762;2023-12-20T06:54:12;28.63;;;3.77;;
19965;SDS011;10144;50.874;4.762;2023-12-20T06:56:41;28.37;;;4.00;;
19965;SDS011;10144;50.874;4.762;2023-12-20T06:59:09;20.67;;;3.90;;
19965;SDS011;10144;50.874;4.762;2023-12-20T07:01:38;26.43;;;4.43;;
19965;SDS011;10144;50.874;4.762;2023-12-20T07:04:06;18.03;;;3.57;;
19965;SDS011;10144;50.874;4.762;2023-12-20T07:06:34;28.20;;;3.73;;
19965;SDS011;10144;50.874;4.762;2023-12-20T07:09:03;19.83;;;3.63;;
19965;SDS011;10144;50.874;4.762;2023-12-20T07:11:29;22.03;;;3.23;;
19965;SDS011;10144;50.874;4.762;2023-12-20T07:16:26;24.80;;;3.10;;
19965;SDS011;10144;50.874;4.762;2023-12-20T07:18:55;24.87;;;3.33;;
19965;SDS011;10144;50.874;4.762;2023-12-20T07:21:22;17.30;;;3.03;;
19965;SDS011;10144;50.874;4.762;2023-12-20T07:23:49;21.83;;;4.03;;
19965;SDS011;10144;50.874;4.762;2023-12-20T07:26:15;15.80;;;3.30;;
19965;SDS011;10144;50.874;4.762;2023-12-20T07:28:43;18.37;;;2.70;;
19965;SDS011;10144;50.874;4.762;2023-12-20T07:31:11;24.50;;;3.37;;
19965;SDS011;10144;50.874;4.762;2023-12-20T07:33:39;19.27;;;2.57;;
19965;SDS011;10144;50.874;4.762;2023-12-20T07:36:11;24.57;;;3.73;;
19965;SDS011;10144;50.874;4.762;2023-12-20T07:38:40;16.17;;;2.60;;
19965;SDS011;10144;50.874;4.762;2023-12-20T07:41:09;16.03;;;3.07;;
19965;SDS011;10144;50.874;4.762;2023-12-20T07:51:09;18.70;;;2.43;;
19965;SDS011;10144;50.874;4.762;2023-12-20T07:53:37;27.80;;;2.60;;
19965;SDS011;10144;50.874;4.762;2023-12-20T07:56:13;18.97;;;3.07;;
19965;SDS011;10144;50.874;4.762;2023-12-20T07:58:46;14.03;;;2.70;;
19965;SDS011;10144;50.874;4.762;2023-12-20T08:01:15;21.77;;;2.33;;
19965;SDS011;10144;50.874;4.762;2023-12-20T08:03:43;16.20;;;2.70;;
19965;SDS011;10144;50.874;4.762;2023-12-20T08:06:09;20.00;;;2.70;;
19965;SDS011;10144;50.874;4.762;2023-12-20T08:11:11;20.10;;;2.50;;
19965;SDS011;10144;50.874;4.762;2023-12-20T08:13:44;17.77;;;2.87;;
19965;SDS011;10144;50.874;4.762;2023-12-20T08:18:43;19.73;;;2.27;;
19965;SDS011;10144;50.874;4.762;2023-12-20T08:21:09;17.70;;;2.23;;
19965;SDS011;10144;50.874;4.762;2023-12-20T08:23:37;17.00;;;2.50;;
19965;SDS011;10144;50.874;4.762;2023-12-20T08:26:06;14.93;;;2.40;;
19965;SDS011;10144;50.874;4.762;2023-12-20T08:28:33;14.77;;;2.20;;
19965;SDS011;10144;50.874;4.762;2023-12-20T08:31:03;18.00;;;1.90;;
19965;SDS011;10144;50.874;4.762;2023-12-20T08:33:32;16.97;;;2.33;;
19965;SDS011;10144;50.874;4.762;2023-12-20T08:36:12;8.33;;;2.27;;
19965;SDS011;10144;50.874;4.762;2023-12-20T08:41:12;10.10;;;1.80;;
19965;SDS011;10144;50.874;4.762;2023-12-20T08:46:07;8.47;;;1.63;;
19965;SDS011;10144;50.874;4.762;2023-12-20T08:48:37;14.73;;;2.13;;
19965;SDS011;10144;50.874;4.762;2023-12-20T08:53:39;11.90;;;2.27;;
19965;SDS011;10144;50.874;4.762;2023-12-20T08:56:11;10.90;;;2.00;;
19965;SDS011;10144;50.874;4.762;2023-12-20T08:58:37;11.93;;;2.30;;
19965;SDS011;10144;50.874;4.762;2023-12-20T09:01:13;13.57;;;1.90;;
19965;SDS011;10144;50.874;4.762;2023-12-20T09:03:39;13.87;;;1.97;;
19965;SDS011;10144;50.874;4.762;2023-12-20T09:06:06;15.30;;;2.10;;
19965;SDS011;10144;50.874;4.762;2023-12-20T09:08:31;11.43;;;2.23;;
19965;SDS011;10144;50.874;4.762;2023-12-20T09:10:57;18.93;;;2.87;;
19965;SDS011;10144;50.874;4.762;2023-12-20T09:13:23;13.93;;;2.37;;
19965;SDS011;10144;50.874;4.762;2023-12-20T09:15:56;12.77;;;1.77;;
19965;SDS011;10144;50.874;4.762;2023-12-20T09:18:22;11.43;;;2.17;;
19965;SDS011;10144;50.874;4.762;2023-12-20T09:20:48;11.27;;;1.77;;
19965;SDS011;10144;50.874;4.762;2023-12-20T09:23:14;11.13;;;2.20;;
19965;SDS011;10144;50.874;4.762;2023-12-20T09:25:40;11.73;;;1.67;;
19965;SDS011;10144;50.874;4.762;2023-12-20T09:28:05;14.67;;;2.00;;
19965;SDS011;10144;50.874;4.762;2023-12-20T09:30:31;8.95;;;1.58;;
19965;SDS011;10144;50.874;4.762;2023-12-20T09:32:57;14.02;;;1.92;;
19965;SDS011;10144;50.874;4.762;2023-12-20T09:35:23;15.65;;;2.33;;
19965;SDS011;10144;50.874;4.762;2023-12-20T09:37:49;20.17;;;2.40;;
19965;SDS011;10144;50.874;4.762;2023-12-20T09:40:14;8.25;;;1.90;;
19965;SDS011;10144;50.874;4.762;2023-12-20T09:43:08;13.13;;;2.47;;
19965;SDS011;10144;50.874;4.762;2023-12-20T09:45:35;14.18;;;2.22;;
19965;SDS011;10144;50.874;4.762;2023-12-20T09:48:01;11.07;;;1.88;;
19965;SDS011;10144;50.874;4.762;2023-12-20T09:50:30;9.05;;;2.10;;
19965;SDS011;10144;50.874;4.762;2023-12-20T09:53:00;13.60;;;2.40;;
19965;SDS011;10144;50.874;4.762;2023-12-20T09:55:31;10.77;;;2.00;;
19965;SDS011;10144;50.874;4.762;2023-12-20T09:57:59;11.75;;;2.28;;
19965;SDS011;10144;50.874;4.762;2023-12-20T10:00:25;14.50;;;2.65;;
19965;SDS011;10144;50.874;4.762;2023-12-20T10:02:55;9.18;;;1.77;;
19965;SDS011;10144;50.874;4.762;2023-12-20T10:05:29;9.68;;;1.90;;
19965;SDS011;10144;50.874;4.762;2023-12-20T10:07:56;18.23;;;2.17;;
19965;SDS011;10144;50.874;4.762;2023-12-20T10:10:23;14.98;;;2.60;;
19965;SDS011;10144;50.874;4.762;2023-12-20T10:13:06;14.88;;;2.38;;
19965;SDS011;10144;50.874;4.762;2023-12-20T10:15:36;16.45;;;2.08;;
19965;SDS011;10144;50.874;4.762;2023-12-20T10:18:04;9.85;;;2.00;;
19965;SDS011;10144;50.874;4.762;2023-12-20T10:20:30;8.57;;;1.80;;
19965;SDS011;10144;50.874;4.762;2023-12-20T10:22:57;15.73;;;2.20;;
19965;SDS011;10144;50.874;4.762;2023-12-20T10:25:27;10.77;;;2.00;;
19965;SDS011;10144;50.874;4.762;2023-12-20T10:28:12;12.03;;;2.10;;
19965;SDS011;10144;50.874;4.762;2023-12-20T10:30:39;14.50;;;2.70;;
19965;SDS011;10144;50.874;4.762;2023-12-20T10:33:06;10.37;;;2.27;;
19965;SDS011;10144;50.874;4.762;2023-12-20T10:35:39;15.70;;;2.37;;
19965;SDS011;10144;50.874;4.762;2023-12-20T10:38:08;16.33;;;2.27;;
19965;SDS011;10144;50.874;4.762;2023-12-20T10:40:34;10.80;;;2.33;;
19965;SDS011;10144;50.874;4.762;2023-12-20T10:43:04;16.70;;;3.00;;
19965;SDS011;10144;50.874;4.762;2023-12-20T10:45:31;15.13;;;2.50;;
19965;SDS011;10144;50.874;4.762;2023-12-20T10:50:30;15.90;;;2.83;;
19965;SDS011;10144;50.874;4.762;2023-12-20T10:53:07;14.60;;;2.30;;
19965;SDS011;10144;50.874;4.762;2023-12-20T10:55:33;15.70;;;2.53;;
19965;SDS011;10144;50.874;4.762;2023-12-20T10:58:09;18.37;;;2.43;;
19965;SDS011;10144;50.874;4.762;2023-12-20T11:00:36;15.53;;;2.57;;
19965;SDS011;10144;50.874;4.762;2023-12-20T11:03:06;21.47;;;2.77;;
19965;SDS011;10144;50.874;4.762;2023-12-20T11:05:42;15.17;;;3.00;;
19965;SDS011;10144;50.874;4.762;2023-12-20T11:11:13;14.80;;;2.10;;
19965;SDS011;10144;50.874;4.762;2023-12-20T11:13:53;13.20;;;2.40;;
19965;SDS011;10144;50.874;4.762;2023-12-20T11:16:28;13.30;;;2.57;;
19965;SDS011;10144;50.874;4.762;2023-12-20T11:18:53;17.13;;;2.90;;
19965;SDS011;10144;50.874;4.762;2023-12-20T11:21:19;13.53;;;2.40;;
19965;SDS011;10144;50.874;4.762;2023-12-20T11:23:49;15.13;;;2.50;;
19965;SDS011;10144;50.874;4.762;2023-12-20T11:26:22;18.57;;;2.53;;
19965;SDS011;10144;50.874;4.762;2023-12-20T11:28:51;19.23;;;2.87;;
19965;SDS011;10144;50.874;4.762;2023-12-20T11:31:17;15.90;;;2.60;;
19965;SDS011;10144;50.874;4.762;2023-12-20T11:33:43;23.33;;;2.27;;
19965;SDS011;10144;50.874;4.762;2023-12-20T11:36:16;13.17;;;2.17;;
19965;SDS011;10144;50.874;4.762;2023-12-20T11:38:56;14.20;;;2.10;;
19965;SDS011;10144;50.874;4.762;2023-12-20T11:41:23;20.67;;;3.50;;
19965;SDS011;10144;50.874;4.762;2023-12-20T11:43:55;15.57;;;2.40;;
19965;SDS011;10144;50.874;4.762;2023-12-20T11:46:21;14.23;;;2.37;;
19965;SDS011;10144;50.874;4.762;2023-12-20T11:48:52;20.13;;;2.70;;
19965;SDS011;10144;50.874;4.762;2023-12-20T11:51:17;18.70;;;3.30;;
19965;SDS011;10144;50.874;4.762;2023-12-20T11:53:43;14.40;;;2.40;;
19965;SDS011;10144;50.874;4.762;2023-12-20T11:56:16;14.00;;;2.70;;
19965;SDS011;10144;50.874;4.762;2023-12-20T11:58:42;18.17;;;2.43;;
19965;SDS011;10144;50.874;4.762;2023-12-20T12:01:09;19.17;;;2.90;;
19965;SDS011;10144;50.874;4.762;2023-12-20T12:03:35;13.50;;;2.60;;
19965;SDS011;10144;50.874;4.762;2023-12-20T12:06:01;16.47;;;2.50;;
19965;SDS011;10144;50.874;4.762;2023-12-20T12:08:32;13.77;;;2.80;;
19965;SDS011;10144;50.874;4.762;2023-12-20T12:10:58;14.30;;;2.30;;
19965;SDS011;10144;50.874;4.762;2023-12-20T12:13:24;14.20;;;2.50;;
19965;SDS011;10144;50.874;4.762;2023-12-20T12:15:55;25.63;;;2.73;;
19965;SDS011;10144;50.874;4.762;2023-12-20T12:18:24;13.50;;;2.50;;
19965;SDS011;10144;50.874;4.762;2023-12-20T12:20:49;15.63;;;2.63;;
19965;SDS011;10144;50.874;4.762;2023-12-20T12:23:15;19.70;;;2.50;;
19965;SDS011;10144;50.874;4.762;2023-12-20T12:25:48;15.50;;;2.53;;
19965;SDS011;10144;50.874;4.762;2023-12-20T12:28:14;21.77;;;3.13;;
19965;SDS011;10144;50.874;4.762;2023-12-20T12:30:40;14.10;;;2.57;;
19965;SDS011;10144;50.874;4.762;2023-12-20T12:33:12;23.13;;;2.80;;
19965;SDS011;10144;50.874;4.762;2023-12-20T12:35:41;15.20;;;2.10;;
19965;SDS011;10144;50.874;4.762;2023-12-20T12:38:07;18.47;;;2.57;;
19965;SDS011;10144;50.874;4.762;2023-12-20T12:40:34;15.10;;;2.40;;
19965;SDS011;10144;50.874;4.762;2023-12-20T12:43:04;14.07;;;2.57;;
19965;SDS011;10144;50.874;4.762;2023-12-20T12:45:32;14.37;;;2.50;;
19965;SDS011;10144;50.874;4.762;2023-12-20T12:47:59;15.73;;;2.60;;
19965;SDS011;10144;50.874;4.762;2023-12-20T12:50:24;18.47;;;3.97;;
19965;SDS011;10144;50.874;4.762;2023-12-20T12:52:51;13.40;;;2.60;;
19965;SDS011;10144;50.874;4.762;2023-12-20T12:55:17;18.97;;;2.33;;
19965;SDS011;10144;50.874;4.762;2023-12-20T12:57:44;16.17;;;3.40;;
19965;SDS011;10144;50.874;4.762;2023-12-20T13:00:10;17.13;;;3.00;;
19965;SDS011;10144;50.874;4.762;2023-12-20T13:02:37;20.00;;;2.43;;
19965;SDS011;10144;50.874;4.762;2023-12-20T13:05:06;13.03;;;2.53;;
19965;SDS011;10144;50.874;4.762;2023-12-20T13:07:34;17.80;;;2.57;;
19965;SDS011;10144;50.874;4.762;2023-12-20T13:10:00;15.50;;;2.80;;
19965;SDS011;10144;50.874;4.762;2023-12-20T13:12:28;14.47;;;2.67;;
19965;SDS011;10144;50.874;4.762;2023-12-20T13:14:54;12.47;;;2.20;;
19965;SDS011;10144;50.874;4.762;2023-12-20T13:17:20;16.47;;;2.67;;
19965;SDS011;10144;50.874;4.762;2023-12-20T13:19:45;14.67;;;2.80;;
19965;SDS011;10144;50.874;4.762;2023-12-20T13:22:11;13.93;;;2.70;;
19965;SDS011;10144;50.874;4.762;2023-12-20T13:24:37;15.87;;;2.87;;
19965;SDS011;10144;50.874;4.762;2023-12-20T13:27:03;18.53;;;3.20;;
19965;SDS011;10144;50.874;4.762;2023-12-20T13:29:28;18.37;;;2.97;;
19965;SDS011;10144;50.874;4.762;2023-12-20T13:31:54;19.00;;;2.90;;
19965;SDS011;10144;50.874;4.762;2023-12-20T13:34:20;22.27;;;3.43;;
19965;SDS011;10144;50.874;4.762;2023-12-20T13:36:47;16.40;;;2.70;;
19965;SDS011;10144;50.874;4.762;2023-12-20T13:39:16;15.63;;;3.37;;
19965;SDS011;10144;50.874;4.762;2023-12-20T13:44:17;16.27;;;3.13;;
19965;SDS011;10144;50.874;4.762;2023-12-20T13:46:43;16.87;;;2.77;;
19965;SDS011;10144;50.874;4.762;2023-12-20T13:49:10;19.97;;;2.90;;
19965;SDS011;10144;50.874;4.762;2023-12-20T13:51:37;21.27;;;3.00;;
19965;SDS011;10144;50.874;4.762;2023-12-20T13:54:03;19.67;;;3.07;;
19965;SDS011;10144;50.874;4.762;2023-12-20T13:56:30;22.63;;;2.60;;
19965;SDS011;10144;50.874;4.762;2023-12-20T13:58:56;12.53;;;2.93;;
19965;SDS011;10144;50.874;4.762;2023-12-20T14:01:22;18.90;;;2.83;;
19965;SDS011;10144;50.874;4.762;2023-12-20T14:03:52;20.53;;;3.13;;
19965;SDS011;10144;50.874;4.762;2023-12-20T14:06:18;16.13;;;2.67;;
19965;SDS011;10144;50.874;4.762;2023-12-20T14:08:44;18.87;;;3.00;;
19965;SDS011;10144;50.874;4.762;2023-12-20T14:11:13;18.17;;;2.77;;
19965;SDS011;10144;50.874;4.762;2023-12-20T14:13:40;16.07;;;2.97;;
19965;SDS011;10144;50.874;4.762;2023-12-20T14:16:06;12.60;;;2.90;;
19965;SDS011;10144;50.874;4.762;2023-12-20T14:18:31;22.57;;;2.57;;
19965;SDS011;10144;50.874;4.762;2023-12-20T14:20:57;18.93;;;2.77;;
19965;SDS011;10144;50.874;4.762;2023-12-20T14:23:29;20.17;;;2.73;;
19965;SDS011;10144;50.874;4.762;2023-12-20T14:25:54;23.20;;;3.07;;
19965;SDS011;10144;50.874;4.762;2023-12-20T14:28:23;18.20;;;2.90;;
19965;SDS011;10144;50.874;4.762;2023-12-20T14:30:51;17.00;;;3.30;;
19965;SDS011;10144;50.874;4.762;2023-12-20T14:33:17;22.30;;;3.93;;
19965;SDS011;10144;50.874;4.762;2023-12-20T14:35:49;24.40;;;2.97;;
19965;SDS011;10144;50.874;4.762;2023-12-20T14:38:15;25.23;;;2.87;;
19965;SDS011;10144;50.874;4.762;2023-12-20T14:40:41;13.67;;;2.50;;
19965;SDS011;10144;50.874;4.762;2023-12-20T14:43:07;15.07;;;2.37;;
19965;SDS011;10144;50.874;4.762;2023-12-20T14:45:36;16.93;;;2.83;;
19965;SDS011;10144;50.874;4.762;2023-12-20T14:48:02;16.17;;;2.37;;
19965;SDS011;10144;50.874;4.762;2023-12-20T14:50:28;17.53;;;2.63;;
19965;SDS011;10144;50.874;4.762;2023-12-20T14:52:54;12.10;;;2.17;;
19965;SDS011;10144;50.874;4.762;2023-12-20T14:55:28;16.20;;;2.47;;
19965;SDS011;10144;50.874;4.762;2023-12-20T14:57:54;19.17;;;3.13;;
19965;SDS011;10144;50.874;4.762;2023-12-20T15:00:20;16.57;;;2.77;;
19965;SDS011;10144;50.874;4.762;2023-12-20T15:02:46;19.70;;;3.00;;
19965;SDS011;10144;50.874;4.762;2023-12-20T15:05:11;19.80;;;3.67;;
19965;SDS011;10144;50.874;4.762;2023-12-20T15:07:37;17.97;;;2.70;;
19965;SDS011;10144;50.874;4.762;2023-12-20T15:10:03;13.17;;;2.40;;
19965;SDS011;10144;50.874;4.762;2023-12-20T15:12:29;19.90;;;2.73;;
19965;SDS011;10144;50.874;4.762;2023-12-20T15:14:54;17.73;;;2.50;;
19965;SDS011;10144;50.874;4.762;2023-12-20T15:17:21;20.40;;;2.70;;
19965;SDS011;10144;50.874;4.762;2023-12-20T15:19:46;18.13;;;2.33;;
19965;SDS011;10144;50.874;4.762;2023-12-20T15:22:12;15.97;;;2.40;;
19965;SDS011;10144;50.874;4.762;2023-12-20T15:24:38;13.10;;;2.40;;
19965;SDS011;10144;50.874;4.762;2023-12-20T15:27:05;12.17;;;2.17;;
19965;SDS011;10144;50.874;4.762;2023-12-20T15:29:31;18.13;;;2.67;;
19965;SDS011;10144;50.874;4.762;2023-12-20T15:31:57;19.47;;;3.17;;
19965;SDS011;10144;50.874;4.762;2023-12-20T15:34:25;14.97;;;2.50;;
19965;SDS011;10144;50.874;4.762;2023-12-20T15:36:51;15.03;;;2.60;;
19965;SDS011;10144;50.874;4.762;2023-12-20T15:39:20;19.37;;;3.10;;
19965;SDS011;10144;50.874;4.762;2023-12-20T15:41:49;11.90;;;2.40;;
19965;SDS011;10144;50.874;4.762;2023-12-20T15:47:06;17.63;;;2.57;;
19965;SDS011;10144;50.874;4.762;2023-12-20T15:49:32;13.33;;;2.60;;
19965;SDS011;10144;50.874;4.762;2023-12-20T15:51:58;17.13;;;3.00;;
19965;SDS011;10144;50.874;4.762;2023-12-20T15:54:23;14.03;;;2.60;;
19965;SDS011;10144;50.874;4.762;2023-12-20T15:56:50;12.37;;;2.30;;
19965;SDS011;10144;50.874;4.762;2023-12-20T15:59:25;22.60;;;2.47;;
19965;SDS011;10144;50.874;4.762;2023-12-20T16:01:50;16.63;;;2.70;;
19965;SDS011;10144;50.874;4.762;2023-12-20T16:04:16;13.67;;;2.67;;
19965;SDS011;10144;50.874;4.762;2023-12-20T16:06:41;20.53;;;3.40;;
19965;SDS011;10144;50.874;4.762;2023-12-20T16:09:08;16.50;;;2.27;;
19965;SDS011;10144;50.874;4.762;2023-12-20T16:11:34;16.47;;;2.70;;
19965;SDS011;10144;50.874;4.762;2023-12-20T16:14:00;12.90;;;2.83;;
19965;SDS011;10144;50.874;4.762;2023-12-20T16:16:25;14.53;;;2.50;;
19965;SDS011;10144;50.874;4.762;2023-12-20T16:18:51;18.73;;;2.63;;
19965;SDS011;10144;50.874;4.762;2023-12-20T16:21:17;13.10;;;2.40;;
19965;SDS011;10144;50.874;4.762;2023-12-20T16:23:42;15.57;;;2.27;;
19965;SDS011;10144;50.874;4.762;2023-12-20T16:26:08;15.53;;;2.33;;
19965;SDS011;10144;50.874;4.762;2023-12-20T16:28:33;20.40;;;2.37;;
19965;SDS011;10144;50.874;4.762;2023-12-20T16:30:59;11.80;;;2.10;;
19965;SDS011;10144;50.874;4.762;2023-12-20T16:33:25;11.60;;;2.20;;
19965;SDS011;10144;50.874;4.762;2023-12-20T16:35:50;13.77;;;2.23;;
19965;SDS011;10144;50.874;4.762;2023-12-20T16:38:16;11.37;;;2.13;;
19965;SDS011;10144;50.874;4.762;2023-12-20T16:40:42;11.73;;;2.67;;
19965;SDS011;10144;50.874;4.762;2023-12-20T16:43:09;16.83;;;2.87;;
19965;SDS011;10144;50.874;4.762;2023-12-20T16:45:35;16.00;;;2.73;;
19965;SDS011;10144;50.874;4.762;2023-12-20T16:48:00;14.63;;;2.60;;
19965;SDS011;10144;50.874;4.762;2023-12-20T16:50:26;14.30;;;2.77;;
19965;SDS011;10144;50.874;4.762;2023-12-20T16:52:52;15.03;;;2.63;;
19965;SDS011;10144;50.874;4.762;2023-12-20T16:55:18;13.17;;;2.23;;
19965;SDS011;10144;50.874;4.762;2023-12-20T16:57:44;11.97;;;2.77;;
19965;SDS011;10144;50.874;4.762;2023-12-20T17:00:10;13.73;;;2.50;;
19965;SDS011;10144;50.874;4.762;2023-12-20T17:02:36;12.27;;;2.73;;
19965;SDS011;10144;50.874;4.762;2023-12-20T17:05:02;14.17;;;2.37;;
19965;SDS011;10144;50.874;4.762;2023-12-20T17:07:28;13.37;;;2.30;;
19965;SDS011;10144;50.874;4.762;2023-12-20T17:09:57;15.83;;;2.70;;
19965;SDS011;10144;50.874;4.762;2023-12-20T17:14:51;13.50;;;2.30;;
19965;SDS011;10144;50.874;4.762;2023-12-20T17:17:17;12.90;;;2.67;;
19965;SDS011;10144;50.874;4.762;2023-12-20T17:19:42;19.63;;;3.83;;
19965;SDS011;10144;50.874;4.762;2023-12-20T17:22:09;18.53;;;3.30;;
19965;SDS011;10144;50.874;4.762;2023-12-20T17:24:35;18.70;;;3.03;;
19965;SDS011;10144;50.874;4.762;2023-12-20T17:27:03;14.83;;;2.63;;
19965;SDS011;10144;50.874;4.762;2023-12-20T17:29:33;15.83;;;3.17;;
19965;SDS011;10144;50.874;4.762;2023-12-20T17:32:01;16.10;;;3.03;;
19965;SDS011;10144;50.874;4.762;2023-12-20T17:34:28;16.63;;;3.00;;
19965;SDS011;10144;50.874;4.762;2023-12-20T17:36:55;15.57;;;2.80;;
19965;SDS011;10144;50.874;4.762;2023-12-20T17:39:24;11.70;;;2.50;;
19965;SDS011;10144;50.874;4.762;2023-12-20T17:41:51;14.97;;;3.20;;
19965;SDS011;10144;50.874;4.762;2023-12-20T17:44:22;15.47;;;2.83;;
19965;SDS011;10144;50.874;4.762;2023-12-20T17:46:51;15.57;;;2.73;;
19965;SDS011;10144;50.874;4.762;2023-12-20T17:49:20;15.07;;;2.97;;
19965;SDS011;10144;50.874;4.762;2023-12-20T17:51:46;16.57;;;3.43;;
19965;SDS011;10144;50.874;4.762;2023-12-20T17:56:51;16.30;;;2.90;;
19965;SDS011;10144;50.874;4.762;2023-12-20T17:59:18;17.77;;;3.13;;
19965;SDS011;10144;50.874;4.762;2023-12-20T18:01:43;14.83;;;2.93;;
19965;SDS011;10144;50.874;4.762;2023-12-20T18:04:09;15.50;;;2.83;;
19965;SDS011;10144;50.874;4.762;2023-12-20T18:06:34;14.97;;;3.17;;
19965;SDS011;10144;50.874;4.762;2023-12-20T18:09:00;13.43;;;3.23;;
19965;SDS011;10144;50.874;4.762;2023-12-20T18:11:26;10.43;;;2.73;;
19965;SDS011;10144;50.874;4.762;2023-12-20T18:13:52;18.27;;;3.03;;